Time;durP1;ratioP1;P1;durP2;ratioP2;P2;SDS_P1;SDS_P2;PMS_P1;PMS_P2;Temp;Humidity;BMP_temperature;BMP_pressure;BME280_temperature;BME280_humidity;BME280_pressure;Samples;Min_cycle;Max_cycle;Signal;HPM_P1;HPM_P2
2021/01/28 00:01:11;;;;;;;;;32.00;30.75;;;;;;;;5000032;28;11195;-90
2021/01/28 00:03:39;;;;;;;;;35.00;27.75;;;;;;;;4988230;28;11279;-87
2021/01/28 00:06:08;;;;;;;;;27.50;27.50;;;;;;;;4999306;28;11355;-89
2021/01/28 00:08:35;;;;;;;;;24.25;22.50;;;;;;;;5011997;28;11169;-88
2021/01/28 00:11:02;;;;;;;;;34.75;28.75;;;;;;;;5005335;28;11162;-87
2021/01/28 00:13:29;;;;;;;;;35.25;31.75;;;;;;;;4985542;28;11461;-86
2021/01/28 00:15:56;;;;;;;;;35.25;35.25;;;;;;;;4988692;28;11405;-87
2021/01/28 00:18:23;;;;;;;;;21.50;21.50;;;;;;;;5010570;28;11375;-85
2021/01/28 00:20:51;;;;;;;;;39.00;37.00;;;;;;;;4988867;28;11598;-85
2021/01/28 00:23:19;;;;;;;;;36.25;34.50;;;;;;;;5009358;28;11625;-84
2021/01/28 00:25:47;;;;;;;;;65.25;51.00;;;;;;;;5005439;28;11592;-85
2021/01/28 00:28:17;;;;;;;;;47.25;35.75;;;;;;;;4969058;28;11740;-86
2021/01/28 00:30:46;;;;;;;;;36.75;34.75;;;;;;;;5003680;28;11584;-85
2021/01/28 00:33:14;;;;;;;;;32.50;32.50;;;;;;;;5001212;28;11604;-87
2021/01/28 00:35:43;;;;;;;;;35.00;35.00;;;;;;;;4999310;28;11633;-87
2021/01/28 00:38:13;;;;;;;;;45.50;37.50;;;;;;;;4998344;28;11606;-83
2021/01/28 00:40:40;;;;;;;;;31.50;29.75;;;;;;;;5004995;28;11723;-84
2021/01/28 00:43:08;;;;;;;;;35.50;31.50;;;;;;;;4997554;28;12291;-84
2021/01/28 00:45:35;;;;;;;;;37.00;34.00;;;;;;;;5004762;28;11361;-84
2021/01/28 00:48:03;;;;;;;;;40.00;34.75;;;;;;;;5004469;28;11618;-81
2021/01/28 00:50:32;;;;;;;;;30.00;29.50;;;;;;;;5003328;28;11538;-83
2021/01/28 00:52:59;;;;;;;;;26.00;26.00;;;;;;;;5004525;28;11286;-86
2021/01/28 00:55:26;;;;;;;;;44.00;32.00;;;;;;;;5002073;28;11323;-83
2021/01/28 00:57:54;;;;;;;;;31.25;28.75;;;;;;;;5006006;28;11608;-84
2021/01/28 01:00:26;;;;;;;;;28.25;26.50;;;;;;;;5007600;28;11590;-86
2021/01/28 01:02:53;;;;;;;;;33.75;28.50;;;;;;;;4988075;28;11636;-84
2021/01/28 01:05:23;;;;;;;;;37.75;31.50;;;;;;;;4998239;28;11393;-90
2021/01/28 01:07:51;;;;;;;;;30.75;30.75;;;;;;;;5001772;28;11604;-88
2021/01/28 01:10:28;;;;;;;;;32.75;30.50;;;;;;;;4987488;28;11381;-90
2021/01/28 01:12:56;;;;;;;;;26.50;25.00;;;;;;;;5001615;28;11342;-91
2021/01/28 01:15:23;;;;;;;;;53.00;44.25;;;;;;;;4986907;28;11944;-90
2021/01/28 01:17:51;;;;;;;;;29.25;28.50;;;;;;;;5003701;28;12279;-87
2021/01/28 01:20:19;;;;;;;;;30.75;27.00;;;;;;;;5002122;28;11434;-86
2021/01/28 01:22:46;;;;;;;;;24.25;23.00;;;;;;;;5004023;28;11320;-81
2021/01/28 01:25:15;;;;;;;;;24.25;23.00;;;;;;;;5003553;28;11279;-87
2021/01/28 01:27:42;;;;;;;;;30.25;29.50;;;;;;;;4992499;28;11126;-82
2021/01/28 01:30:11;;;;;;;;;32.25;28.00;;;;;;;;5000955;28;11631;-83
2021/01/28 01:32:38;;;;;;;;;20.75;19.50;;;;;;;;4996818;28;11610;-84
2021/01/28 01:35:06;;;;;;;;;27.00;22.75;;;;;;;;5001518;28;11364;-82
2021/01/28 01:37:33;;;;;;;;;30.00;25.75;;;;;;;;5000420;28;11171;-84
2021/01/28 01:40:00;;;;;;;;;19.50;18.75;;;;;;;;4988324;28;11457;-81
2021/01/28 01:42:27;;;;;;;;;30.00;24.00;;;;;;;;5002141;28;11132;-84
2021/01/28 01:44:54;;;;;;;;;19.00;17.75;;;;;;;;5001081;28;11250;-87
2021/01/28 01:47:34;;;;;;;;;21.50;20.75;;;;;;;;4986003;28;11136;-85
2021/01/28 01:50:03;;;;;;;;;20.50;17.50;;;;;;;;5005088;28;11253;-83
2021/01/28 01:52:33;;;;;;;;;29.00;22.50;;;;;;;;5004178;28;11238;-82
2021/01/28 01:55:00;;;;;;;;;22.00;18.50;;;;;;;;4986960;28;11132;-85
2021/01/28 01:57:30;;;;;;;;;29.00;22.25;;;;;;;;4983272;28;11159;-85
2021/01/28 02:00:04;;;;;;;;;15.00;15.00;;;;;;;;4970199;28;11292;-84
2021/01/28 02:02:36;;;;;;;;;21.75;20.00;;;;;;;;4999756;28;11017;-82
2021/01/28 02:05:09;;;;;;;;;13.00;13.00;;;;;;;;5003978;28;11016;-83
2021/01/28 02:07:37;;;;;;;;;13.00;13.00;;;;;;;;5001433;28;10988;-85
2021/01/28 02:10:06;;;;;;;;;12.75;12.75;;;;;;;;5004231;28;10869;-85
2021/01/28 02:12:32;;;;;;;;;17.25;12.75;;;;;;;;5001973;28;10778;-85
2021/01/28 02:14:59;;;;;;;;;13.00;13.00;;;;;;;;5002934;28;10783;-87
2021/01/28 02:17:27;;;;;;;;;11.25;11.25;;;;;;;;5004172;28;10632;-85
2021/01/28 02:20:28;;;;;;;;;11.00;11.00;;;;;;;;5002546;28;10810;-85
2021/01/28 02:23:02;;;;;;;;;10.00;7.50;;;;;;;;4999773;28;10712;-83
2021/01/28 02:25:31;;;;;;;;;16.00;11.25;;;;;;;;5000722;28;10742;-83
2021/01/28 02:28:03;;;;;;;;;19.00;17.50;;;;;;;;4982129;28;10925;-83
2021/01/28 02:30:31;;;;;;;;;13.00;13.00;;;;;;;;5005605;28;10903;-85
2021/01/28 02:32:58;;;;;;;;;13.00;13.00;;;;;;;;5007379;28;10729;-89
2021/01/28 02:35:27;;;;;;;;;11.50;10.50;;;;;;;;4989337;28;10605;-79
2021/01/28 02:37:54;;;;;;;;;14.50;14.50;;;;;;;;4997732;28;10678;-88
2021/01/28 02:40:25;;;;;;;;;10.50;10.00;;;;;;;;5005648;28;10701;-87
2021/01/28 02:42:53;;;;;;;;;10.00;7.75;;;;;;;;5006557;28;10576;-86
2021/01/28 02:45:21;;;;;;;;;8.50;8.50;;;;;;;;5004361;28;10679;-81
2021/01/28 02:47:52;;;;;;;;;13.00;11.75;;;;;;;;5006663;28;10531;-90
2021/01/28 02:50:19;;;;;;;;;10.00;10.00;;;;;;;;5003690;28;10690;-88
2021/01/28 02:52:46;;;;;;;;;7.75;6.75;;;;;;;;5002742;28;10440;-88
2021/01/28 02:55:14;;;;;;;;;7.00;7.00;;;;;;;;5007379;28;10425;-91
2021/01/28 02:57:41;;;;;;;;;10.00;10.00;;;;;;;;5005834;28;10457;-86
2021/01/28 03:00:12;;;;;;;;;5.00;5.00;;;;;;;;4990138;28;10494;-86
2021/01/28 03:02:39;;;;;;;;;7.00;7.00;;;;;;;;5005557;28;10286;-86
2021/01/28 03:05:08;;;;;;;;;5.25;5.25;;;;;;;;5007550;28;10450;-85
2021/01/28 03:07:34;;;;;;;;;6.25;6.25;;;;;;;;5005569;28;10521;-83
2021/01/28 03:10:01;;;;;;;;;12.50;8.50;;;;;;;;5007713;28;10437;-83
2021/01/28 03:12:30;;;;;;;;;7.25;7.25;;;;;;;;5012154;28;10493;-85
2021/01/28 03:14:57;;;;;;;;;7.00;7.00;;;;;;;;4991031;28;10443;-83
2021/01/28 03:17:25;;;;;;;;;7.25;7.25;;;;;;;;5006550;28;10447;-87
2021/01/28 03:19:51;;;;;;;;;6.00;6.00;;;;;;;;4968222;28;10453;-87
2021/01/28 03:22:18;;;;;;;;;7.00;5.75;;;;;;;;5008768;28;10351;-87
2021/01/28 03:24:45;;;;;;;;;7.00;6.00;;;;;;;;5004198;28;10233;-88
2021/01/28 03:27:12;;;;;;;;;7.00;7.00;;;;;;;;5006654;28;10275;-86
2021/01/28 03:29:39;;;;;;;;;6.25;6.00;;;;;;;;5003726;28;10194;-86
2021/01/28 03:32:06;;;;;;;;;7.00;4.50;;;;;;;;5003369;28;10201;-89
2021/01/28 03:34:35;;;;;;;;;4.00;4.00;;;;;;;;5007504;28;10093;-87
2021/01/28 03:37:01;;;;;;;;;4.25;4.25;;;;;;;;5004533;28;10118;-86
2021/01/28 03:39:28;;;;;;;;;8.00;8.00;;;;;;;;5006739;28;10150;-86
2021/01/28 03:41:55;;;;;;;;;11.25;8.00;;;;;;;;5005511;28;10171;-87
2021/01/28 03:44:22;;;;;;;;;5.50;5.50;;;;;;;;5004998;28;10313;-85
2021/01/28 03:46:49;;;;;;;;;5.25;3.00;;;;;;;;4994328;28;10188;-89
2021/01/28 03:49:16;;;;;;;;;32.75;22.50;;;;;;;;4989779;28;10175;-87
2021/01/28 03:51:44;;;;;;;;;10.00;10.00;;;;;;;;5005536;28;11236;-87
2021/01/28 03:54:11;;;;;;;;;8.75;8.75;;;;;;;;5006177;28;10220;-88
2021/01/28 03:56:38;;;;;;;;;11.75;8.00;;;;;;;;5000314;28;10230;-92
2021/01/28 03:59:05;;;;;;;;;11.25;10.00;;;;;;;;4984443;28;10103;-84
2021/01/28 04:01:32;;;;;;;;;12.00;7.75;;;;;;;;5004504;28;10020;-93
2021/01/28 04:03:59;;;;;;;;;8.75;7.00;;;;;;;;5006090;28;10151;-88
2021/01/28 04:06:26;;;;;;;;;9.00;9.00;;;;;;;;5003033;28;10072;-82
2021/01/28 04:08:54;;;;;;;;;11.75;9.50;;;;;;;;4990819;28;10142;-84
2021/01/28 04:11:21;;;;;;;;;11.75;11.75;;;;;;;;5005769;28;10239;-87
2021/01/28 04:13:47;;;;;;;;;7.00;7.00;;;;;;;;4987381;28;10203;-86
2021/01/28 04:16:14;;;;;;;;;8.00;8.00;;;;;;;;5003769;28;10071;-83
2021/01/28 04:18:41;;;;;;;;;13.25;12.00;;;;;;;;4986897;28;10155;-85
2021/01/28 04:21:08;;;;;;;;;13.50;11.50;;;;;;;;5004664;28;10177;-86
2021/01/28 04:23:35;;;;;;;;;9.75;7.75;;;;;;;;5005938;28;10153;-83
2021/01/28 04:26:03;;;;;;;;;11.00;11.00;;;;;;;;4998686;28;10210;-87
2021/01/28 04:28:30;;;;;;;;;12.75;12.00;;;;;;;;4987551;28;10317;-85
2021/01/28 04:30:57;;;;;;;;;13.75;12.75;;;;;;;;4997030;28;10123;-84
2021/01/28 04:33:24;;;;;;;;;10.75;9.75;;;;;;;;5005055;28;10149;-82
2021/01/28 04:35:51;;;;;;;;;10.50;9.25;;;;;;;;5000615;28;10279;-81
2021/01/28 04:38:18;;;;;;;;;14.50;12.00;;;;;;;;5001937;28;10124;-82
2021/01/28 04:40:48;;;;;;;;;13.50;13.50;;;;;;;;5002741;28;10204;-81
2021/01/28 04:43:22;;;;;;;;;14.00;13.75;;;;;;;;5003428;28;10136;-83
2021/01/28 04:45:50;;;;;;;;;10.25;10.25;;;;;;;;5004805;28;10348;-83
2021/01/28 04:48:17;;;;;;;;;15.00;12.50;;;;;;;;4987389;28;10130;-83
2021/01/28 04:50:45;;;;;;;;;14.25;13.75;;;;;;;;4984217;28;10168;-82
2021/01/28 04:53:15;;;;;;;;;10.25;8.75;;;;;;;;4999972;28;9987;-87
2021/01/28 04:55:44;;;;;;;;;13.50;12.25;;;;;;;;5004772;28;10100;-81
2021/01/28 04:58:11;;;;;;;;;9.75;9.75;;;;;;;;5004721;28;10278;-83
2021/01/28 05:00:39;;;;;;;;;7.50;6.50;;;;;;;;5002496;28;10008;-81
2021/01/28 05:03:13;;;;;;;;;7.50;7.50;;;;;;;;5004043;28;9937;-85
2021/01/28 05:05:40;;;;;;;;;12.25;8.50;;;;;;;;5010764;28;10044;-86
2021/01/28 05:08:07;;;;;;;;;8.00;8.00;;;;;;;;4985636;28;9799;-84
2021/01/28 05:10:45;;;;;;;;;14.75;8.00;;;;;;;;5001090;28;9921;-82
2021/01/28 05:13:12;;;;;;;;;10.50;10.00;;;;;;;;4999846;28;9826;-83
2021/01/28 05:15:42;;;;;;;;;8.00;6.75;;;;;;;;5006735;28;9740;-83
2021/01/28 05:18:26;;;;;;;;;7.50;7.50;;;;;;;;5005109;28;9884;-80
2021/01/28 05:21:01;;;;;;;;;6.50;5.00;;;;;;;;4996870;28;9821;-80
2021/01/28 05:23:30;;;;;;;;;9.25;7.50;;;;;;;;5004502;28;9762;-81
2021/01/28 05:25:57;;;;;;;;;8.00;8.00;;;;;;;;5004042;28;9633;-80
2021/01/28 05:28:28;;;;;;;;;1.00;1.00;;;;;;;;5002571;28;9861;-80
2021/01/28 05:30:57;;;;;;;;;6.25;6.25;;;;;;;;4993085;28;9554;-80
2021/01/28 05:33:32;;;;;;;;;6.00;5.00;;;;;;;;5002633;28;9667;-78
2021/01/28 05:36:20;;;;;;;;;3.75;3.75;;;;;;;;4993334;28;9645;-81
2021/01/28 05:38:50;;;;;;;;;5.50;4.00;;;;;;;;4998372;28;9628;-80
2021/01/28 05:41:29;;;;;;;;;3.50;3.00;;;;;;;;5004144;28;10514;-81
2021/01/28 05:43:56;;;;;;;;;2.67;2.00;;;;;;;;4992061;28;9598;-81
2021/01/28 05:46:26;;;;;;;;;4.00;4.00;;;;;;;;5003625;28;9345;-80
2021/01/28 05:49:05;;;;;;;;;2.25;2.25;;;;;;;;5000743;28;9395;-80
2021/01/28 05:51:39;;;;;;;;;3.50;2.00;;;;;;;;5002895;28;9509;-81
2021/01/28 05:54:07;;;;;;;;;2.33;2.33;;;;;;;;5004592;28;10229;-80
2021/01/28 05:56:51;;;;;;;;;2.00;2.00;;;;;;;;4992343;28;9522;-80
2021/01/28 05:59:23;;;;;;;;;3.00;3.00;;;;;;;;5003184;28;9482;-83
2021/01/28 06:02:12;;;;;;;;;2.00;2.00;;;;;;;;4997588;28;9349;-81
2021/01/28 06:04:49;;;;;;;;;2.00;2.00;;;;;;;;4993049;28;9546;-80
2021/01/28 06:07:53;;;;;;;;;2.33;2.33;;;;;;;;5004288;28;9356;-81
2021/01/28 06:10:34;;;;;;;;;2.00;2.00;;;;;;;;4948532;28;9324;-83
2021/01/28 06:13:46;;;;;;;;;1.00;1.00;;;;;;;;5000585;28;9416;-81
2021/01/28 06:16:21;;;;;;;;;2.67;2.67;;;;;;;;4971165;28;9399;-79
2021/01/28 06:19:23;;;;;;;;;3.33;2.00;;;;;;;;5002294;28;9356;-80
2021/01/28 06:22:01;;;;;;;;;1.67;1.67;;;;;;;;5000459;28;9284;-80
2021/01/28 06:24:50;;;;;;;;;1.00;1.00;;;;;;;;5004202;28;10135;-78
2021/01/28 06:27:42;;;;;;;;;1.00;1.00;;;;;;;;4991803;28;9283;-77
2021/01/28 06:30:21;;;;;;;;;1.00;1.00;;;;;;;;5000406;28;9233;-78
2021/01/28 06:33:03;;;;;;;;;1.00;1.00;;;;;;;;4980592;28;9207;-77
2021/01/28 06:35:54;;;;;;;;;1.00;1.00;;;;;;;;4991538;28;9371;-77
2021/01/28 06:38:49;;;;;;;;;0.00;0.00;;;;;;;;5002794;28;9140;-77
2021/01/28 06:41:18;;;;;;;;;0.00;0.00;;;;;;;;4963029;28;9124;-77
2021/01/28 06:43:50;;;;;;;;;0.67;0.67;;;;;;;;4983310;28;9206;-76
2021/01/28 06:46:40;;;;;;;;;0.00;0.00;;;;;;;;5012389;28;9272;-76
2021/01/28 06:49:14;;;;;;;;;0.00;0.00;;;;;;;;4999634;28;9133;-75
2021/01/28 06:51:52;;;;;;;;;0.00;0.00;;;;;;;;5003224;28;9136;-76
2021/01/28 06:54:26;;;;;;;;;0.00;0.00;;;;;;;;5010703;28;9225;-76
2021/01/28 06:56:57;;;;;;;;;0.00;0.00;;;;;;;;4992338;28;9113;-76
2021/01/28 06:59:40;;;;;;;;;0.00;0.00;;;;;;;;5001374;28;9107;-77
2021/01/28 07:02:12;;;;;;;;;0.00;0.00;;;;;;;;4995204;28;9165;-79
2021/01/28 07:04:46;;;;;;;;;0.00;0.00;;;;;;;;4990459;28;9132;-72
2021/01/28 07:07:15;;;;;;;;;0.00;0.00;;;;;;;;4996842;28;9121;-71
2021/01/28 07:09:47;;;;;;;;;0.00;0.00;;;;;;;;5002551;28;8995;-71
2021/01/28 07:12:19;;;;;;;;;0.00;0.00;;;;;;;;5001341;28;9045;-71
2021/01/28 07:14:50;;;;;;;;;0.00;0.00;;;;;;;;4997355;28;8977;-71
2021/01/28 07:17:20;;;;;;;;;0.00;0.00;;;;;;;;4995788;28;8972;-71
2021/01/28 07:19:52;;;;;;;;;0.00;0.00;;;;;;;;4993801;28;9138;-71
2021/01/28 07:22:30;;;;;;;;;0.00;0.00;;;;;;;;4998015;28;9045;-71
2021/01/28 07:25:23;;;;;;;;;0.00;0.00;;;;;;;;4998417;28;9902;-70
2021/01/28 07:28:00;;;;;;;;;0.00;0.00;;;;;;;;4998105;28;9229;-70
2021/01/28 07:30:39;;;;;;;;;0.00;0.00;;;;;;;;5005056;28;8957;-70
2021/01/28 07:33:06;;;;;;;;;0.00;0.00;;;;;;;;4995661;28;9077;-71
2021/01/28 07:35:49;;;;;;;;;0.00;0.00;;;;;;;;5006525;28;9132;-70
2021/01/28 07:38:50;;;;;;;;;0.00;0.00;;;;;;;;5010673;28;8968;-70
2021/01/28 07:41:51;;;;;;;;;0.00;0.00;;;;;;;;4932901;28;9131;-70
2021/01/28 07:44:46;;;;;;;;;0.00;0.00;;;;;;;;4991680;28;9140;-71
2021/01/28 07:47:16;;;;;;;;;0.00;0.00;;;;;;;;4977948;28;8968;-71
2021/01/28 07:50:08;;;;;;;;;0.00;0.00;;;;;;;;5011471;28;9054;-71
2021/01/28 07:52:39;;;;;;;;;0.00;0.00;;;;;;;;4990309;28;9066;-70
2021/01/28 07:55:09;;;;;;;;;0.00;0.00;;;;;;;;5008863;28;8979;-71
2021/01/28 07:57:44;;;;;;;;;0.00;0.00;;;;;;;;4999674;28;9022;-71
2021/01/28 08:00:14;;;;;;;;;0.00;0.00;;;;;;;;4996746;28;8991;-70
2021/01/28 08:02:42;;;;;;;;;0.00;0.00;;;;;;;;4997739;28;9174;-71
2021/01/28 08:05:12;;;;;;;;;0.00;0.00;;;;;;;;4996583;28;9026;-72
2021/01/28 08:07:43;;;;;;;;;0.00;0.00;;;;;;;;5000190;28;9099;-69
2021/01/28 08:10:23;;;;;;;;;0.00;0.00;;;;;;;;5003060;28;9278;-71
2021/01/28 08:12:53;;;;;;;;;0.00;0.00;;;;;;;;5002819;28;9038;-71
2021/01/28 08:15:23;;;;;;;;;0.00;0.00;;;;;;;;4996642;28;9072;-71
2021/01/28 08:18:01;;;;;;;;;0.00;0.00;;;;;;;;5005941;28;10163;-71
2021/01/28 08:20:31;;;;;;;;;0.00;0.00;;;;;;;;4997636;28;9166;-71
2021/01/28 08:23:02;;;;;;;;;0.00;0.00;;;;;;;;5004822;28;9212;-71
2021/01/28 08:25:33;;;;;;;;;0.00;0.00;;;;;;;;5006373;28;9032;-71
2021/01/28 08:28:16;;;;;;;;;0.00;0.00;;;;;;;;4998349;28;8988;-71
2021/01/28 08:30:44;;;;;;;;;0.00;0.00;;;;;;;;5002279;28;8932;-71
2021/01/28 08:33:18;;;;;;;;;0.00;0.00;;;;;;;;5003004;28;9128;-71
2021/01/28 08:35:48;;;;;;;;;0.00;0.00;;;;;;;;5006221;28;9066;-71
2021/01/28 08:38:17;;;;;;;;;0.00;0.00;;;;;;;;5004945;28;8868;-71
2021/01/28 08:40:47;;;;;;;;;0.00;0.00;;;;;;;;5005018;28;8884;-72
2021/01/28 08:43:19;;;;;;;;;0.00;0.00;;;;;;;;5003928;28;8876;-71
2021/01/28 08:45:47;;;;;;;;;0.00;0.00;;;;;;;;4998115;28;8894;-71
2021/01/28 08:48:16;;;;;;;;;0.00;0.00;;;;;;;;5000592;28;8968;-72
2021/01/28 08:50:44;;;;;;;;;0.00;0.00;;;;;;;;4993369;28;8898;-70
2021/01/28 08:53:16;;;;;;;;;0.00;0.00;;;;;;;;5004727;28;8953;-72
2021/01/28 08:55:44;;;;;;;;;0.00;0.00;;;;;;;;4998404;28;8975;-71
2021/01/28 08:58:17;;;;;;;;;0.00;0.00;;;;;;;;5004668;28;8899;-71
2021/01/28 09:00:46;;;;;;;;;0.00;0.00;;;;;;;;5010672;28;8887;-70
2021/01/28 09:03:18;;;;;;;;;0.00;0.00;;;;;;;;5006435;28;9693;-71
2021/01/28 09:05:45;;;;;;;;;0.00;0.00;;;;;;;;5009828;28;8879;-71
2021/01/28 09:08:30;;;;;;;;;0.00;0.00;;;;;;;;5000257;28;8875;-71
2021/01/28 09:11:07;;;;;;;;;0.00;0.00;;;;;;;;5003179;28;8906;-71
2021/01/28 09:13:35;;;;;;;;;0.00;0.00;;;;;;;;5003480;28;8966;-71
2021/01/28 09:16:11;;;;;;;;;0.00;0.00;;;;;;;;5005043;28;8923;-71
2021/01/28 09:18:40;;;;;;;;;0.00;0.00;;;;;;;;5000344;28;8899;-71
2021/01/28 09:21:15;;;;;;;;;0.00;0.00;;;;;;;;4996288;28;8872;-72
2021/01/28 09:23:57;;;;;;;;;0.00;0.00;;;;;;;;5004833;28;9014;-71
2021/01/28 09:26:27;;;;;;;;;0.00;0.00;;;;;;;;5000690;28;8874;-71
2021/01/28 09:28:55;;;;;;;;;0.00;0.00;;;;;;;;5000430;28;8910;-71
2021/01/28 09:31:28;;;;;;;;;0.00;0.00;;;;;;;;5001520;28;8901;-71
2021/01/28 09:33:55;;;;;;;;;0.00;0.00;;;;;;;;5001323;28;8889;-71
2021/01/28 09:36:25;;;;;;;;;0.00;0.00;;;;;;;;5005024;28;8876;-71
2021/01/28 09:39:01;;;;;;;;;0.00;0.00;;;;;;;;4995448;28;8930;-71
2021/01/28 09:41:31;;;;;;;;;0.00;0.00;;;;;;;;4999299;28;8974;-69
2021/01/28 09:43:59;;;;;;;;;0.00;0.00;;;;;;;;4999516;28;8908;-70
2021/01/28 09:46:30;;;;;;;;;0.00;0.00;;;;;;;;4994973;28;8933;-70
2021/01/28 09:48:59;;;;;;;;;0.00;0.00;;;;;;;;5002751;28;9719;-70
2021/01/28 09:51:31;;;;;;;;;0.00;0.00;;;;;;;;4996694;28;8864;-70
2021/01/28 09:53:59;;;;;;;;;0.00;0.00;;;;;;;;5000530;28;8949;-69
2021/01/28 09:56:26;;;;;;;;;0.00;0.00;;;;;;;;5003952;28;8874;-70
2021/01/28 09:58:53;;;;;;;;;0.00;0.00;;;;;;;;5002586;28;8908;-70
2021/01/28 10:01:21;;;;;;;;;1.00;0.00;;;;;;;;5002093;28;8816;-69
2021/01/28 10:03:48;;;;;;;;;3.00;0.00;;;;;;;;5000372;28;8914;-70
2021/01/28 10:06:14;;;;;;;;;0.00;0.00;;;;;;;;5002964;28;9456;-70
2021/01/28 10:08:41;;;;;;;;;0.00;0.00;;;;;;;;5001744;28;8900;-70
2021/01/28 10:11:08;;;;;;;;;0.00;0.00;;;;;;;;4999017;28;8933;-70
2021/01/28 10:13:36;;;;;;;;;0.00;0.00;;;;;;;;4997726;28;8913;-70
2021/01/28 10:16:03;;;;;;;;;0.00;0.00;;;;;;;;5001233;28;8864;-70
2021/01/28 10:18:30;;;;;;;;;0.00;0.00;;;;;;;;5002965;28;8868;-70
2021/01/28 10:20:57;;;;;;;;;0.00;0.00;;;;;;;;5000887;28;8864;-70
2021/01/28 10:23:24;;;;;;;;;0.00;0.00;;;;;;;;5005386;28;8875;-70
2021/01/28 10:25:50;;;;;;;;;0.00;0.00;;;;;;;;4998019;28;8908;-70
2021/01/28 10:28:17;;;;;;;;;0.00;0.00;;;;;;;;5003438;28;8864;-70
2021/01/28 10:30:44;;;;;;;;;0.00;0.00;;;;;;;;5001099;28;9476;-69
2021/01/28 10:33:11;;;;;;;;;0.00;0.00;;;;;;;;4996907;28;8858;-69
2021/01/28 10:35:39;;;;;;;;;0.00;0.00;;;;;;;;4990504;28;8883;-69
2021/01/28 10:38:07;;;;;;;;;0.00;0.00;;;;;;;;5001497;28;8920;-70
2021/01/28 10:40:35;;;;;;;;;0.25;0.00;;;;;;;;5001313;28;8871;-70
2021/01/28 10:43:05;;;;;;;;;0.75;0.00;;;;;;;;4994516;28;8871;-70
2021/01/28 10:45:33;;;;;;;;;0.00;0.00;;;;;;;;5004342;28;8857;-70
2021/01/28 10:48:01;;;;;;;;;1.00;0.00;;;;;;;;5002295;28;8906;-70
2021/01/28 10:50:28;;;;;;;;;0.00;0.00;;;;;;;;4984243;28;9618;-70
2021/01/28 10:52:56;;;;;;;;;0.00;0.00;;;;;;;;5001865;28;8947;-70
2021/01/28 10:55:25;;;;;;;;;0.50;0.00;;;;;;;;5005679;28;8903;-71
2021/01/28 10:57:52;;;;;;;;;0.00;0.00;;;;;;;;5005695;28;8882;-70
2021/01/28 11:00:20;;;;;;;;;0.00;0.00;;;;;;;;5003535;28;8880;-70
2021/01/28 11:02:47;;;;;;;;;0.50;0.00;;;;;;;;5010792;28;8896;-70
2021/01/28 11:05:16;;;;;;;;;0.00;0.00;;;;;;;;5005275;28;8887;-70
2021/01/28 11:07:43;;;;;;;;;0.00;0.00;;;;;;;;5003298;28;8895;-71
2021/01/28 11:10:13;;;;;;;;;0.50;0.00;;;;;;;;5002302;28;9658;-70
2021/01/28 11:12:39;;;;;;;;;0.00;0.00;;;;;;;;5005875;28;9003;-70
2021/01/28 11:15:08;;;;;;;;;0.00;0.00;;;;;;;;5004555;28;8891;-70
2021/01/28 11:17:35;;;;;;;;;0.00;0.00;;;;;;;;5004687;28;8888;-70
2021/01/28 11:20:02;;;;;;;;;0.00;0.00;;;;;;;;5005042;28;8917;-70
2021/01/28 11:22:29;;;;;;;;;0.00;0.00;;;;;;;;4999382;28;9630;-71
2021/01/28 11:24:56;;;;;;;;;0.00;0.00;;;;;;;;5012410;28;9006;-70
2021/01/28 11:27:25;;;;;;;;;0.25;0.00;;;;;;;;5012201;28;8876;-70
2021/01/28 11:29:52;;;;;;;;;0.00;0.00;;;;;;;;5012949;28;8883;-70
2021/01/28 11:32:19;;;;;;;;;0.00;0.00;;;;;;;;5012386;28;8845;-71
2021/01/28 11:34:46;;;;;;;;;1.75;0.00;;;;;;;;5011173;28;8991;-72
2021/01/28 11:37:13;;;;;;;;;0.00;0.00;;;;;;;;5009808;28;8869;-72
2021/01/28 11:39:39;;;;;;;;;0.00;0.00;;;;;;;;5000443;28;8911;-72
2021/01/28 11:42:06;;;;;;;;;0.00;0.00;;;;;;;;4987574;28;8899;-73
2021/01/28 11:44:34;;;;;;;;;0.00;0.00;;;;;;;;5007589;28;8926;-69
2021/01/28 11:47:00;;;;;;;;;1.25;0.00;;;;;;;;5008047;28;9016;-71
2021/01/28 11:49:27;;;;;;;;;0.00;0.00;;;;;;;;5005112;28;8880;-72
2021/01/28 11:51:54;;;;;;;;;0.00;0.00;;;;;;;;5004772;28;8927;-71
2021/01/28 11:54:21;;;;;;;;;0.00;0.00;;;;;;;;5004151;28;8903;-71
2021/01/28 11:56:47;;;;;;;;;0.00;0.00;;;;;;;;4985914;28;8876;-71
2021/01/28 11:59:14;;;;;;;;;0.00;0.00;;;;;;;;5002348;28;8888;-71
2021/01/28 12:01:42;;;;;;;;;1.00;0.00;;;;;;;;5001981;28;8828;-71
2021/01/28 12:04:09;;;;;;;;;0.50;0.00;;;;;;;;5000546;28;8884;-71
2021/01/28 12:06:35;;;;;;;;;0.00;0.00;;;;;;;;5004584;28;8884;-71
2021/01/28 12:09:04;;;;;;;;;0.00;0.00;;;;;;;;5003927;28;8883;-71
2021/01/28 12:11:31;;;;;;;;;0.00;0.00;;;;;;;;4997804;28;8886;-71
2021/01/28 12:13:57;;;;;;;;;0.00;0.00;;;;;;;;4998206;28;8973;-71
2021/01/28 12:16:24;;;;;;;;;0.00;0.00;;;;;;;;5005165;28;8917;-71
2021/01/28 12:18:52;;;;;;;;;1.00;0.00;;;;;;;;5002100;28;8887;-70
2021/01/28 12:21:18;;;;;;;;;0.75;0.00;;;;;;;;5004449;28;8871;-71
2021/01/28 12:23:45;;;;;;;;;0.00;0.00;;;;;;;;4995663;28;8886;-70
2021/01/28 12:26:12;;;;;;;;;0.00;0.00;;;;;;;;4997000;28;8910;-70
2021/01/28 12:28:39;;;;;;;;;0.25;0.25;;;;;;;;5003720;28;8913;-70
2021/01/28 12:31:05;;;;;;;;;0.00;0.00;;;;;;;;5001351;28;9646;-71
2021/01/28 12:33:32;;;;;;;;;0.00;0.00;;;;;;;;5003579;28;8884;-70
2021/01/28 12:35:59;;;;;;;;;0.00;0.00;;;;;;;;5003470;28;9658;-70
2021/01/28 12:38:26;;;;;;;;;0.00;0.00;;;;;;;;5003440;28;8902;-71
2021/01/28 12:40:53;;;;;;;;;0.00;0.00;;;;;;;;5000400;28;8879;-70
2021/01/28 12:43:20;;;;;;;;;0.00;0.00;;;;;;;;5005222;28;9687;-70
2021/01/28 12:45:47;;;;;;;;;0.00;0.00;;;;;;;;4998697;28;8874;-70
2021/01/28 12:48:13;;;;;;;;;0.00;0.00;;;;;;;;5002592;28;8876;-69
2021/01/28 12:50:40;;;;;;;;;0.00;0.00;;;;;;;;5003865;28;8872;-69
2021/01/28 12:53:08;;;;;;;;;0.00;0.00;;;;;;;;4998405;28;8867;-70
2021/01/28 12:55:34;;;;;;;;;0.00;0.00;;;;;;;;4999101;28;8911;-70
2021/01/28 12:58:01;;;;;;;;;0.00;0.00;;;;;;;;4995702;28;8876;-69
2021/01/28 13:00:28;;;;;;;;;0.00;0.00;;;;;;;;5001091;28;8844;-69
2021/01/28 13:02:55;;;;;;;;;0.00;0.00;;;;;;;;5006298;28;9017;-69
2021/01/28 13:05:22;;;;;;;;;0.00;0.00;;;;;;;;5005301;28;8872;-69
2021/01/28 13:07:49;;;;;;;;;0.00;0.00;;;;;;;;5004109;28;8864;-69
2021/01/28 13:10:17;;;;;;;;;0.00;0.00;;;;;;;;4998369;28;8882;-69
2021/01/28 13:12:44;;;;;;;;;0.25;0.25;;;;;;;;5008098;28;8960;-69
2021/01/28 13:15:13;;;;;;;;;1.00;0.00;;;;;;;;4998383;28;8897;-69
2021/01/28 13:17:40;;;;;;;;;1.00;0.00;;;;;;;;5013903;28;8892;-69
2021/01/28 13:20:08;;;;;;;;;0.00;0.00;;;;;;;;5002602;28;8876;-69
2021/01/28 13:22:35;;;;;;;;;0.00;0.00;;;;;;;;5003420;28;9001;-69
2021/01/28 13:25:01;;;;;;;;;0.00;0.00;;;;;;;;5009137;28;8907;-69
2021/01/28 13:27:29;;;;;;;;;0.00;0.00;;;;;;;;5001715;28;8973;-69
2021/01/28 13:29:56;;;;;;;;;0.00;0.00;;;;;;;;5001688;28;8859;-70
2021/01/28 13:32:22;;;;;;;;;0.00;0.00;;;;;;;;4997871;28;8820;-70
2021/01/28 13:34:49;;;;;;;;;0.00;0.00;;;;;;;;4995353;28;8906;-69
2021/01/28 13:37:16;;;;;;;;;0.00;0.00;;;;;;;;5002112;28;8887;-69
2021/01/28 13:39:42;;;;;;;;;0.00;0.00;;;;;;;;5000498;28;8874;-69
2021/01/28 13:42:09;;;;;;;;;0.00;0.00;;;;;;;;4995959;28;8878;-69
2021/01/28 13:44:37;;;;;;;;;0.00;0.00;;;;;;;;5002404;28;8896;-70
2021/01/28 13:47:04;;;;;;;;;0.75;0.00;;;;;;;;5005537;28;8893;-70
2021/01/28 13:49:31;;;;;;;;;0.00;0.00;;;;;;;;4986153;28;8871;-70
2021/01/28 13:51:57;;;;;;;;;0.50;0.00;;;;;;;;4996887;28;8927;-70
2021/01/28 13:54:25;;;;;;;;;0.00;0.00;;;;;;;;5002198;28;8863;-70
2021/01/28 13:56:53;;;;;;;;;0.00;0.00;;;;;;;;5002347;28;8872;-70
2021/01/28 13:59:19;;;;;;;;;0.00;0.00;;;;;;;;5008168;28;8905;-70
2021/01/28 14:01:47;;;;;;;;;0.00;0.00;;;;;;;;5000525;28;8835;-70
2021/01/28 14:04:14;;;;;;;;;0.00;0.00;;;;;;;;5002094;28;8876;-70
2021/01/28 14:06:41;;;;;;;;;0.00;0.00;;;;;;;;5001105;28;8903;-70
2021/01/28 14:09:08;;;;;;;;;1.00;0.00;;;;;;;;4978410;28;8948;-70
2021/01/28 14:11:35;;;;;;;;;1.25;0.00;;;;;;;;4999867;28;9665;-70
2021/01/28 14:14:01;;;;;;;;;0.00;0.00;;;;;;;;4998064;28;8897;-71
2021/01/28 14:16:28;;;;;;;;;0.00;0.00;;;;;;;;4999012;28;8927;-70
2021/01/28 14:18:55;;;;;;;;;0.50;0.50;;;;;;;;5003038;28;8892;-70
2021/01/28 14:21:22;;;;;;;;;0.00;0.00;;;;;;;;4999978;28;8855;-70
2021/01/28 14:23:49;;;;;;;;;0.00;0.00;;;;;;;;4997756;28;8913;-70
2021/01/28 14:26:16;;;;;;;;;0.00;0.00;;;;;;;;5003450;28;8926;-70
2021/01/28 14:28:43;;;;;;;;;0.00;0.00;;;;;;;;5005817;28;8895;-70
2021/01/28 14:31:10;;;;;;;;;0.75;0.75;;;;;;;;5007249;28;8820;-71
2021/01/28 14:33:36;;;;;;;;;0.00;0.00;;;;;;;;4999381;28;8872;-71
2021/01/28 14:36:04;;;;;;;;;0.00;0.00;;;;;;;;4985914;28;9693;-70
2021/01/28 14:38:31;;;;;;;;;0.00;0.00;;;;;;;;5006210;28;8883;-71
2021/01/28 14:40:58;;;;;;;;;1.00;1.00;;;;;;;;5006668;28;8895;-70
2021/01/28 14:43:25;;;;;;;;;0.75;0.00;;;;;;;;5005723;28;8965;-70
2021/01/28 14:45:51;;;;;;;;;0.00;0.00;;;;;;;;5002368;28;8880;-70
2021/01/28 14:48:18;;;;;;;;;2.50;0.00;;;;;;;;5004782;28;8864;-71
2021/01/28 14:50:45;;;;;;;;;0.00;0.00;;;;;;;;5005212;28;8890;-71
2021/01/28 14:53:12;;;;;;;;;0.00;0.00;;;;;;;;5005721;28;8872;-71
2021/01/28 14:55:39;;;;;;;;;0.75;0.00;;;;;;;;5003034;28;8879;-71
2021/01/28 14:58:06;;;;;;;;;2.00;0.75;;;;;;;;5000902;28;8907;-71
2021/01/28 15:00:33;;;;;;;;;1.00;1.00;;;;;;;;5001887;28;8789;-71
2021/01/28 15:03:00;;;;;;;;;0.00;0.00;;;;;;;;5016418;28;8903;-71